Dundee, Kansas
Current Conditions -  °F | °C
As of 9:53 AM on Thursday 29 Jan 2015 (Local Time) from KRSL Reporting Station
Clear Clear  
Wind Chill: 31°   Ceiling: Unl
Heat Index: 40°   Visibility: 10mi
Dew Point: 27°   Wind: 18mph
Humidity: 60%   Direction: 330°NNW
Pressure: 30.45"   Gusts: NA
Location:  38.3903°N, 98.8296°W
Report Text: KRSL 291553Z AUTO 33016KT 10SM CLR 04/M03 A3045 RMK AO2 SLP316 T00441028
Loading
Personal Weather Stations






























Interactive Weather Map New forecast layout! Learn more

10-Day Weather Forecast

Advertisements
Track Severe Weather on mobile